Home > Products > Valid Products > TAF

000
FTUS43 KJKL 012340
TAFSME
TAF
KSME 012340Z 0200/0224 00000KT P6SM SCT250
     FM020500 00000KT 4SM BR SCT250
     FM020900 00000KT 2SM BR SCT250
     FM021300 VRB03KT P6SM SKC
     FM021600 33005KT P6SM SCT040=



000
FTUS43 KJKL 012340
TAFLOZ
TAF
KLOZ 012340Z 0200/0224 00000KT P6SM SCT250
     FM021000 00000KT 3SM BR SCT250
     FM021300 VRB03KT P6SM SKC
     FM021600 31005KT P6SM SCT040=



000
FTUS43 KJKL 012340
TAFJKL
TAF
KJKL 012340Z 0200/0224 00000KT P6SM SCT250
     FM021000 00000KT 5SM BR SCT250
     FM021300 VRB03KT P6SM SKC
     FM021600 33003KT P6SM SCT040=



000
FTUS43 KJKL 011726
TAFJKL
TAF
KJKL 011726Z 0118/0218 VRB03KT P6SM SCT030 SCT050
     FM020100 00000KT P6SM SCT250
     FM020900 00000KT 4SM BR SKC
     FM021300 VRB03KT P6SM SKC=



000
FTUS43 KJKL 011726
TAFSME
TAF
KSME 011726Z 0118/0218 VRB04KT P6SM SCT040
     FM020600 00000KT 5SM BR SCT250
      TEMPO 0209/0212 2SM BR
     FM021300 VRB03KT P6SM SKC=



000
FTUS43 KJKL 011726
TAFLOZ
TAF
KLOZ 011726Z 0118/0218 VRB05KT P6SM SCT040
     FM020100 00000KT P6SM SCT250
     FM020900 00000KT 4SM BR SKC
     FM021300 VRB03KT P6SM SKC=



000
FTUS43 KJKL 011726
TAFLOZ
TAF
KLOZ 011726Z 0118/0218 VRB05KT P6SM SCT040
     FM020100 00000KT P6SM SCT250
     FM020900 00000KT 4SM BR SKC
     FM021300 VRB03KT P6SM SKC=



000
FTUS43 KJKL 011726
TAFSME
TAF
KSME 011726Z 0118/0218 VRB04KT P6SM SCT040
     FM020600 00000KT 5SM BR SCT250
      TEMPO 0209/0212 2SM BR
     FM021300 VRB03KT P6SM SKC=



000
FTUS43 KJKL 011726
TAFJKL
TAF
KJKL 011726Z 0118/0218 VRB03KT P6SM SCT030 SCT050
     FM020100 00000KT P6SM SCT250
     FM020900 00000KT 4SM BR SKC
     FM021300 VRB03KT P6SM SKC=



000
FTUS43 KJKL 011340 AAA
TAFSME
TAF AMD
KSME 011340Z 0114/0212 VRB03KT P6SM SCT100 SCT250
     FM020800 00000KT 4SM BR SKC=



000
FTUS43 KJKL 011120
TAFLOZ
TAF
KLOZ 011120Z 0112/0212 00000KT P6SM SCT100
     FM011500 VRB05KT P6SM SCT100 SCT250
     FM020100 00000KT P6SM SCT250
     FM020800 00000KT 4SM BR SKC=



000
FTUS43 KJKL 011120
TAFJKL
TAF
KJKL 011120Z 0112/0212 00000KT P6SM SCT100
     FM011500 VRB06KT P6SM SCT100 SCT250
     FM020100 00000KT P6SM SCT250=



000
FTUS43 KJKL 011120
TAFJKL
TAF
KJKL 011120Z 0112/0212 00000KT P6SM SCT100
     FM011500 VRB06KT P6SM SCT100 SCT250
     FM020100 00000KT P6SM SCT250=



000
FTUS43 KJKL 011120
TAFSME
TAF
KSME 011120Z 0112/0212 00000KT 6SM BR SCT100
      TEMPO 0112/0114 3SM BR
     FM011500 VRB05KT P6SM SCT100 SCT250
     FM020100 00000KT P6SM SCT250
     FM020800 00000KT 4SM BR SKC=



000
FTUS43 KJKL 011120
TAFLOZ
TAF
KLOZ 011120Z 0112/0212 00000KT P6SM SCT100
     FM011500 VRB05KT P6SM SCT100 SCT250
     FM020100 00000KT P6SM SCT250
     FM020800 00000KT 4SM BR SKC=



000
FTUS43 KJKL 011120
TAFSME
TAF
KSME 011120Z 0112/0212 00000KT 6SM BR SCT100
      TEMPO 0112/0114 3SM BR
     FM011500 VRB05KT P6SM SCT100 SCT250
     FM020100 00000KT P6SM SCT250
     FM020800 00000KT 4SM BR SKC=



000
FTUS43 KJKL 011002 AAB
TAFJKL
TAF AMD
KJKL 011002Z 0110/0206 00000KT P6SM BKN250
     FM011400 VRB06KT P6SM SCT050 SCT250=



000
FTUS43 KJKL 010838 AAB
TAFJKL
TAF AMD
KJKL 010838Z 0109/0206 00000KT P6SM SKC
     FM011000 00000KT 4SM BR SKC
      TEMPO 0110/0112 1/2SM FG VV002
     FM011300 00000KT 3SM BR BKN030
     FM011400 VRB06KT P6SM FEW250=



000
FTUS43 KJKL 010837 AAA
TAFLOZ
TAF AMD
KLOZ 010837Z 0109/0206 00000KT 6SM BR SKC
      TEMPO 0109/0110 5SM BR
     FM011000 00000KT 5SM BR SKC
      TEMPO 0110/0112 1/2SM FG VV002
     FM011300 00000KT 3SM BR BKN030
     FM011400 VRB06KT P6SM FEW250=



000
FTUS43 KJKL 010835 AAA
TAFSME
TAF AMD
KSME 010835Z 0109/0206 00000KT 3SM BR SKC
      TEMPO 0109/0111 1/2SM FG VV002
     FM011100 00000KT 1/2SM FG VV002
     FM011200 00000KT 3SM BR BKN030
     FM011400 VRB06KT P6SM FEW250=



000
FTUS43 KJKL 010539
TAFSME
TAF
KSME 010539Z 0106/0206 00000KT P6SM SKC
      TEMPO 0106/0107 4SM BR
     FM010700 00000KT 3SM BR SKC
      TEMPO 0107/0111 1/2SM FG VV002
     FM011100 00000KT 1/2SM FG VV002
     FM011200 00000KT 3SM BR BKN030
     FM011400 VRB06KT P6SM FEW250=



000
FTUS43 KJKL 010539
TAFJKL
TAF
KJKL 010539Z 0106/0206 00000KT P6SM SKC
     FM010700 00000KT 4SM BR SKC
      TEMPO 0108/0112 1/2SM FG VV002
     FM011300 00000KT 3SM BR BKN030
     FM011400 VRB06KT P6SM FEW250=



000
FTUS43 KJKL 010539
TAFLOZ
TAF
KLOZ 010539Z 0106/0206 00000KT 6SM BR SKC
      TEMPO 0106/0108 5SM BR
     FM010800 00000KT 4SM BR SKC
      TEMPO 0108/0112 1/2SM FG VV002
     FM011300 00000KT 3SM BR BKN030
     FM011400 VRB06KT P6SM FEW250=



000
FTUS43 KJKL 312320
TAFJKL
TAF
KJKL 312320Z 0100/0124 VRB03KT P6SM FEW050 FEW250
     FM010700 00000KT 3SM BR SKC
      TEMPO 0108/0112 1/2SM FG VV001
     FM011300 00000KT 4SM BR BKN010
     FM011700 02003KT P6SM BKN100=



000
FTUS43 KJKL 312320
TAFLOZ
TAF
KLOZ 312320Z 0100/0124 03003KT P6SM FEW050 FEW250
     FM010700 00000KT 3SM BR SKC
      TEMPO 0108/0112 1/2SM FG VV002
     FM011200 00000KT 2SM BR BKN010
     FM011300 02003KT P6SM FEW250=



000
FTUS43 KJKL 312320
TAFSME
TAF
KSME 312320Z 0100/0124 00000KT P6SM FEW050 FEW250
     FM010700 00000KT 3SM BR SKC
     FM010900 00000KT 1/2SM FG OVC002
     FM011200 00000KT 1SM BR BKN010
     FM011300 00000KT 5SM BR SCT020
     FM011400 02003KT P6SM FEW250=



000
FTUS43 KJKL 311723
TAFLOZ
TAF
KLOZ 311723Z 3118/0118 VRB05KT P6SM SCT040
     FM010700 00000KT 3SM BR SKC
      TEMPO 0108/0112 1/2SM FG VV002
     FM011300 02003KT P6SM FEW250=



000
FTUS43 KJKL 311723
TAFSME
TAF
KSME 311723Z 3118/0118 VRB05KT P6SM SCT040
     FM010700 00000KT 3SM BR SKC
     FM010900 00000KT 1/2SM FG OVC002
     FM011400 02003KT P6SM FEW250=



000
FTUS43 KJKL 311723
TAFJKL
TAF
KJKL 311723Z 3118/0118 VRB03KT P6SM SCT030 SCT045
     FM010700 00000KT 3SM BR SKC
      TEMPO 0108/0112 1/2SM FG VV001
     FM011300 00000KT 4SM HZ BKN100
     FM011700 02003KT P6SM BKN100=



000
FTUS43 KJKL 311723
TAFSME
TAF
KSME 311723Z 3118/0118 VRB05KT P6SM SCT040
     FM010700 00000KT 3SM BR SKC
     FM010900 00000KT 1/2SM FG OVC002
     FM011400 02003KT P6SM FEW250=



000
FTUS43 KJKL 311723
TAFLOZ
TAF
KLOZ 311723Z 3118/0118 VRB05KT P6SM SCT040
     FM010700 00000KT 3SM BR SKC
      TEMPO 0108/0112 1/2SM FG VV002
     FM011300 02003KT P6SM FEW250=



000
FTUS43 KJKL 311723
TAFJKL
TAF
KJKL 311723Z 3118/0118 VRB03KT P6SM SCT030 SCT045
     FM010700 00000KT 3SM BR SKC
      TEMPO 0108/0112 1/2SM FG VV001
     FM011300 00000KT 4SM HZ BKN100
     FM011700 02003KT P6SM BKN100=



000
FTUS43 KJKL 311124
TAFLOZ
TAF
KLOZ 311124Z 3112/0112 00000KT 4SM BR FEW100
      TEMPO 3112/3114 2SM BR
     FM311500 VRB05KT P6SM SCT050 BKN100
     FM010700 00000KT 3SM BR SKC
      TEMPO 0108/0112 1/2SM FG=



000
FTUS43 KJKL 311124
TAFSME
TAF
KSME 311124Z 3112/0112 00000KT 1/4SM FG OVC002
     FM311300 VRB03KT 6SM BR FEW050
      TEMPO 3113/3114 5SM BR
     FM311500 VRB05KT P6SM SCT050 BKN100
     FM010700 00000KT 3SM BR SKC
      TEMPO 0108/0112 1/2SM FG=



000
FTUS43 KJKL 311124
TAFJKL
TAF
KJKL 311124Z 3112/0112 00000KT 1/4SM FG VV001
     FM311300 VRB03KT 6SM BR FEW050
      TEMPO 3113/3114 5SM BR
     FM311500 VRB05KT P6SM SCT050 BKN100
     FM010700 00000KT 3SM BR SKC
      TEMPO 0108/0112 1/2SM FG=



000
FTUS43 KJKL 311124
TAFJKL
TAF
KJKL 311124Z 3112/0112 00000KT 1/4SM FG VV001
     FM311300 VRB03KT 6SM BR FEW050
      TEMPO 3113/3114 5SM BR
     FM311500 VRB05KT P6SM SCT050 BKN100
     FM010700 00000KT 3SM BR SKC
      TEMPO 0108/0112 1/2SM FG=



000
FTUS43 KJKL 311124
TAFLOZ
TAF
KLOZ 311124Z 3112/0112 00000KT 4SM BR FEW100
      TEMPO 3112/3114 2SM BR
     FM311500 VRB05KT P6SM SCT050 BKN100
     FM010700 00000KT 3SM BR SKC
      TEMPO 0108/0112 1/2SM FG=



000
FTUS43 KJKL 311124
TAFSME
TAF
KSME 311124Z 3112/0112 00000KT 1/4SM FG OVC002
     FM311300 VRB03KT 6SM BR FEW050
      TEMPO 3113/3114 5SM BR
     FM311500 VRB05KT P6SM SCT050 BKN100
     FM010700 00000KT 3SM BR SKC
      TEMPO 0108/0112 1/2SM FG=



000
FTUS43 KJKL 311005 AAC
TAFJKL
TAF AMD
KJKL 311005Z 3110/0106 00000KT 5SM BR FEW050
      TEMPO 3110/3112 1/2SM FG VV001
     FM311400 VRB05KT P6SM SCT050 BKN100=



000
FTUS43 KJKL 310806 AAB
TAFSME
TAF AMD
KSME 310806Z 3108/0106 00000KT 5SM BR FEW025
      TEMPO 3108/3112 1/2SM FG OVC002
     FM311400 03004KT P6SM BKN040
     FM010000 00000KT P6SM SKC
     FM010400 36001KT 4SM BR SKC=



000
FTUS43 KJKL 310710 AAA
TAFSME
TAF AMD
KSME 310710Z 3107/0106 00000KT 5SM BR FEW025
      TEMPO 3107/3111 1SM BR
     FM311400 03004KT P6SM BKN040
     FM010000 00000KT P6SM SKC
     FM010400 36001KT 4SM BR SKC=



000
FTUS43 KJKL 310530
TAFJKL
TAF
KJKL 310530Z 3106/0106 00000KT P6SM SCT050 BKN100
     FM311500 VRB05KT P6SM SCT050 BKN100=



000
FTUS43 KJKL 310530
TAFLOZ
TAF
KLOZ 310530Z 3106/0106 00000KT P6SM BKN040
     FM310700 00000KT 5SM BR FEW025
      TEMPO 3110/3112 2SM BR
     FM311400 03004KT P6SM BKN040
     FM010000 00000KT P6SM SKC
     FM010400 36001KT 4SM BR SKC=



000
FTUS43 KJKL 310530
TAFSME
TAF
KSME 310530Z 3106/0106 00000KT P6SM FEW040
      TEMPO 3106/3108 5SM BR
     FM310800 00000KT 5SM BR FEW025
      TEMPO 3110/3112 2SM BR
     FM311400 03004KT P6SM BKN040
     FM010000 00000KT P6SM SKC
     FM010400 36001KT 4SM BR SKC=



000
FTUS43 KJKL 302320
TAFLOZ
TAF
KLOZ 302320Z 3100/3124 17005KT P6SM FEW050 BKN250
     FM310600 VRB03KT P6SM FEW025 SCT040 BKN120
     FM310900 00000KT 4SM BR VV005 BKN100
     FM311300 VRB03KT P6SM SCT025
     FM311500 VRB05KT P6SM SCT030 BKN045=



000
FTUS43 KJKL 302320
TAFJKL
TAF
KJKL 302320Z 3100/3124 00000KT P6SM FEW050 BKN250
     FM310600 00000KT P6SM FEW025 SCT050 BKN100
     FM311100 00000KT 4SM BR SCT030 SCT100
     FM311500 VRB05KT P6SM SCT030 BKN045=



000
FTUS43 KJKL 302320
TAFSME
TAF
KSME 302320Z 3100/3124 16004KT P6SM SCT040 BKN250
     FM310600 VRB05KT P6SM FEW025 SCT040 BKN120
     FM310900 VRB03KT 4SM BR SCT100 SCT250
     FM311300 VRB03KT P6SM FEW030 SCT100 SCT250
     FM311500 VRB05KT P6SM SCT030 BKN045=



000
FTUS43 KJKL 302320
TAFJKL
TAF
KJKL 302320Z 3100/3124 00000KT P6SM FEW050 BKN250
     FM310600 00000KT P6SM FEW025 SCT050 BKN100
     FM311100 00000KT 4SM BR SCT030 SCT100
     FM311500 VRB05KT P6SM SCT030 BKN045=



000
FTUS43 KJKL 302320
TAFSME
TAF
KSME 302320Z 3100/3124 16004KT P6SM SCT040 BKN250
     FM310600 VRB05KT P6SM FEW025 SCT040 BKN120
     FM310900 VRB03KT 4SM BR SCT100 SCT250
     FM311300 VRB03KT P6SM FEW030 SCT100 SCT250
     FM311500 VRB05KT P6SM SCT030 BKN045=



000
FTUS43 KJKL 302320
TAFLOZ
TAF
KLOZ 302320Z 3100/3124 17005KT P6SM FEW050 BKN250
     FM310600 VRB03KT P6SM FEW025 SCT040 BKN120
     FM310900 00000KT 4SM BR VV005 BKN100
     FM311300 VRB03KT P6SM SCT025
     FM311500 VRB05KT P6SM SCT030 BKN045=



000
FTUS43 KJKL 301736
TAFLOZ
TAF
KLOZ 301736Z 3018/3118 VRB05KT P6SM BKN050 BKN100
     FM310600 VRB03KT P6SM BKN040 BKN120
     FM310900 00000KT 4SM BR VV005 BKN100
     FM311300 VRB03KT P6SM SCT025
     FM311500 VRB05KT P6SM BKN030=



000
FTUS43 KJKL 301736
TAFJKL
TAF
KJKL 301736Z 3018/3118 VRB05KT P6SM SCT035 BKN060 OVC100
     FM310600 00000KT P6SM SCT050 BKN100
     FM311100 00000KT 4SM BR SCT030 SCT100
     FM311500 VRB05KT P6SM SCT030=



000
FTUS43 KJKL 301736
TAFSME
TAF
KSME 301736Z 3018/3118 VRB05KT P6SM VCSH SCT070 BKN100
     FM310600 VRB05KT P6SM BKN040 BKN120
     FM310900 VRB03KT 4SM BR SCT100
     FM311300 VRB03KT P6SM FEW030 SCT100
     FM311500 VRB05KT P6SM SCT030=



000
FTUS43 KJKL 301120
TAFSME
TAF
KSME 301120Z 3012/3112 VRB03KT P6SM BKN100 BKN250
     FM301430 21007KT P6SM BKN040
     FM301800 24007KT 5SM -SHRA VCTS BKN050CB OVC120
     FM310000 VRB05KT P6SM VCTS BKN050CB BKN120
     FM310700 VRB03KT 4SM BR SCT100=



000
FTUS43 KJKL 301120
TAFLOZ
TAF
KLOZ 301120Z 3012/3112 VRB03KT P6SM SCT100 BKN250
     FM301400 22007KT P6SM BKN040
     FM301800 24007KT 5SM -SHRA VCTS BKN050CB OVC120
     FM310000 VRB05KT P6SM VCTS BKN050CB BKN120
     FM310700 VRB03KT 4SM BR SCT100=



000
FTUS43 KJKL 301120
TAFJKL
TAF
KJKL 301120Z 3012/3112 00000KT P6SM SCT250
     FM301800 VRB06KT 5SM -SHRA VCTS BKN050CB OVC120
     FM310000 VRB06KT P6SM VCTS BKN040CB BKN120
     FM310900 VRB03KT 4SM BR SCT100=



000
FTUS43 KJKL 301120
TAFSME
TAF
KSME 301120Z 3012/3112 VRB03KT P6SM BKN100 BKN250
     FM301430 21007KT P6SM BKN040
     FM301800 24007KT 5SM -SHRA VCTS BKN050CB OVC120
     FM310000 VRB05KT P6SM VCTS BKN050CB BKN120
     FM310700 VRB03KT 4SM BR SCT100=



000
FTUS43 KJKL 301120
TAFLOZ
TAF
KLOZ 301120Z 3012/3112 VRB03KT P6SM SCT100 BKN250
     FM301400 22007KT P6SM BKN040
     FM301800 24007KT 5SM -SHRA VCTS BKN050CB OVC120
     FM310000 VRB05KT P6SM VCTS BKN050CB BKN120
     FM310700 VRB03KT 4SM BR SCT100=



000
FTUS43 KJKL 301120
TAFJKL
TAF
KJKL 301120Z 3012/3112 00000KT P6SM SCT250
     FM301800 VRB06KT 5SM -SHRA VCTS BKN050CB OVC120
     FM310000 VRB06KT P6SM VCTS BKN040CB BKN120
     FM310900 VRB03KT 4SM BR SCT100=



000
FTUS43 KJKL 300937 AAA
TAFSME
TAF AMD
KSME 300937Z 3010/3106 VRB03KT P6SM SCT100 BKN250
     FM301430 21007KT P6SM BKN040
     FM301800 24007KT 5SM -SHRA VCTS BKN050CB OVC120
     FM310000 VRB05KT P6SM VCTS BKN050CB BKN120=



000
FTUS43 KJKL 300936 AAA
TAFLOZ
TAF AMD
KLOZ 300936Z 3010/3106 VRB03KT P6SM SCT100 BKN250
     FM301400 22007KT P6SM BKN040
     FM301800 24007KT 5SM -SHRA VCTS BKN050CB OVC120
     FM310000 VRB05KT P6SM VCTS BKN050CB BKN120=



000
FTUS43 KJKL 300520
TAFLOZ
TAF
KLOZ 300520Z 3006/3106 VRB03KT P6SM SCT100 BKN250
     FM300700 00000KT 5SM BR FEW050
      TEMPO 3009/3012 1SM BR
     FM301400 22007KT P6SM BKN040
     FM301800 24007KT 5SM -SHRA VCTS BKN050CB OVC120
     FM310000 VRB05KT P6SM VCTS BKN050CB BKN120=



000
FTUS43 KJKL 300520
TAFLOZ
TAF
KLOZ 300520Z 3006/3106 VRB03KT P6SM SCT100 BKN250
     FM300700 00000KT 5SM BR FEW050
      TEMPO 3009/3012 1SM BR
     FM301400 22007KT P6SM BKN040
     FM301800 24007KT 5SM -SHRA VCTS BKN050CB OVC120
     FM310000 VRB05KT P6SM VCTS BKN050CB BKN120=



000
FTUS43 KJKL 300520
TAFSME
TAF
KSME 300520Z 3006/3106 VRB03KT P6SM SCT100 BKN250
     FM300700 00000KT 5SM BR FEW050
      TEMPO 3010/3012 1SM BR
     FM301430 21007KT P6SM BKN040
     FM301800 24007KT 5SM -SHRA VCTS BKN050CB OVC120
     FM310000 VRB05KT P6SM VCTS BKN050CB BKN120=



000
FTUS43 KJKL 300520
TAFJKL
TAF
KJKL 300520Z 3006/3106 00000KT P6SM SCT250
     FM301800 VRB06KT 5SM -SHRA VCTS BKN050CB OVC120
     FM310000 VRB06KT P6SM VCTS BKN040CB BKN120=



000
FTUS43 KJKL 300520
TAFSME
TAF
KSME 300520Z 3006/3106 VRB03KT P6SM SCT100 BKN250
     FM300700 00000KT 5SM BR FEW050
      TEMPO 3010/3012 1SM BR
     FM301430 21007KT P6SM BKN040
     FM301800 24007KT 5SM -SHRA VCTS BKN050CB OVC120
     FM310000 VRB05KT P6SM VCTS BKN050CB BKN120=



000
FTUS43 KJKL 300520
TAFJKL
TAF
KJKL 300520Z 3006/3106 00000KT P6SM SCT250
     FM301800 VRB06KT 5SM -SHRA VCTS BKN050CB OVC120
     FM310000 VRB06KT P6SM VCTS BKN040CB BKN120=



    US Dept of Commerce
    National Oceanic and Atmospheric Administration
    National Weather Service
    1325 East West Highway
    Silver Spring, MD 20910
    Page Author: NWS Internet Services Team
Disclaimer
Information Quality
Credits
Glossary
Privacy Policy
Freedom of Information Act (FOIA)
About Us
Career Opportunities